Time;durP1;ratioP1;P1;durP2;ratioP2;P2;SDS_P1;SDS_P2;PMS_P1;PMS_P2;Temp;Humidity;BMP_temperature;BMP_pressure;BME280_temperature;BME280_humidity;BME280_pressure;Samples;Min_cycle;Max_cycle;Signal;HPM_P1;HPM_P2
2022/03/23 00:00:08;;;;;;;;;;;21.50;28.50;;;;;;484782;246;1078;-39
2022/03/23 00:02:09;;;;;;;;;;;21.40;28.50;;;;;;484312;246;1034;-39
2022/03/23 00:04:10;;;;;;;;;;;21.40;28.50;;;;;;484374;246;1045;-39
2022/03/23 00:06:12;;;;;;;;;;;21.40;28.50;;;;;;484662;246;2199;-39
2022/03/23 00:08:13;;;;;;;;;;;21.50;28.50;;;;;;484227;246;1098;-39
2022/03/23 00:10:14;;;;;;;;;;;21.50;28.50;;;;;;484764;246;1035;-39
2022/03/23 00:12:16;;;;;;;;;;;21.50;28.50;;;;;;484294;246;1059;-39
2022/03/23 00:14:18;;;;;;;;;;;21.40;28.50;;;;;;484327;246;1203;-39
2022/03/23 00:16:18;;;;;;;;;;;21.40;28.50;;;;;;484227;246;2125;-39
2022/03/23 00:18:20;;;;;;;;;;;21.40;28.50;;;;;;484737;246;1164;-39
2022/03/23 00:20:21;;;;;;;;;;;21.40;28.50;;;;;;484533;246;1021;-39
2022/03/23 00:22:27;;;;;;;;;;;21.40;28.50;;;;;;484369;246;1221;-39
2022/03/23 00:24:24;;;;;;;;;;;21.40;28.50;;;;;;484427;246;2133;-39
2022/03/23 00:26:25;;;;;;;;;;;21.40;28.50;;;;;;484261;246;2191;-39
2022/03/23 00:28:26;;;;;;;;;;;21.40;28.50;;;;;;484516;246;1207;-39
2022/03/23 00:30:28;;;;;;;;;;;21.40;28.50;;;;;;484532;246;1075;-39
2022/03/23 00:32:29;;;;;;;;;;;21.40;28.50;;;;;;484706;246;1193;-39
2022/03/23 00:34:30;;;;;;;;;;;21.40;28.50;;;;;;484438;246;1095;-39
2022/03/23 00:36:31;;;;;;;;;;;21.40;28.50;;;;;;484662;246;1203;-39
2022/03/23 00:38:33;;;;;;;;;;;21.40;28.50;;;;;;484499;246;1111;-39
2022/03/23 00:40:34;;;;;;;;;;;21.50;28.50;;;;;;484304;246;1080;-39
2022/03/23 00:42:36;;;;;;;;;;;21.50;28.50;;;;;;484587;246;1105;-39
2022/03/23 00:44:37;;;;;;;;;;;21.40;28.50;;;;;;484362;246;1204;-39
2022/03/23 00:46:38;;;;;;;;;;;21.40;28.50;;;;;;484296;246;2128;-39
2022/03/23 00:48:39;;;;;;;;;;;21.50;28.50;;;;;;484285;246;1262;-39
2022/03/23 00:50:42;;;;;;;;;;;21.50;28.50;;;;;;484749;241;1194;-39
2022/03/23 00:52:45;;;;;;;;;;;21.40;28.50;;;;;;484695;246;1976;-39
2022/03/23 00:54:43;;;;;;;;;;;21.40;28.50;;;;;;484593;246;1362;-39
2022/03/23 00:56:45;;;;;;;;;;;21.50;28.50;;;;;;484695;246;1314;-39
2022/03/23 00:58:46;;;;;;;;;;;21.40;28.50;;;;;;484573;246;1271;-39
2022/03/23 01:00:48;;;;;;;;;;;21.40;28.50;;;;;;484703;246;1117;-39
2022/03/23 01:02:49;;;;;;;;;;;21.40;28.50;;;;;;484544;246;1730;-39
2022/03/23 01:04:50;;;;;;;;;;;21.40;28.50;;;;;;484251;246;1110;-39
2022/03/23 01:06:52;;;;;;;;;;;21.40;28.50;;;;;;484462;246;2140;-39
2022/03/23 01:08:53;;;;;;;;;;;21.40;28.50;;;;;;484727;246;2500;-39
2022/03/23 01:10:54;;;;;;;;;;;21.50;28.50;;;;;;484729;246;1111;-39
2022/03/23 01:12:55;;;;;;;;;;;21.50;28.50;;;;;;484458;246;1163;-39
2022/03/23 01:14:57;;;;;;;;;;;21.50;28.50;;;;;;484392;246;1186;-39
2022/03/23 01:16:58;;;;;;;;;;;21.40;28.50;;;;;;484388;245;1399;-39
2022/03/23 01:18:59;;;;;;;;;;;21.40;28.50;;;;;;484718;246;1137;-39
2022/03/23 01:21:01;;;;;;;;;;;21.40;28.60;;;;;;484308;246;1091;-39
2022/03/23 01:23:03;;;;;;;;;;;21.40;28.50;;;;;;484273;246;1242;-39
2022/03/23 01:25:04;;;;;;;;;;;21.40;28.50;;;;;;484742;246;2179;-39
2022/03/23 01:27:05;;;;;;;;;;;21.50;28.50;;;;;;484701;246;2180;-39
2022/03/23 01:29:08;;;;;;;;;;;21.40;28.50;;;;;;484543;246;1170;-39
2022/03/23 01:31:08;;;;;;;;;;;21.40;28.50;;;;;;484572;246;2143;-39
2022/03/23 01:33:10;;;;;;;;;;;21.50;28.50;;;;;;484306;246;1120;-39
2022/03/23 01:35:11;;;;;;;;;;;21.40;28.50;;;;;;484647;246;1044;-39
2022/03/23 01:37:12;;;;;;;;;;;21.50;28.50;;;;;;484670;246;2808;-39
2022/03/23 01:39:13;;;;;;;;;;;21.50;28.50;;;;;;484684;246;1114;-39
2022/03/23 01:41:15;;;;;;;;;;;21.50;28.50;;;;;;484378;246;1291;-39
2022/03/23 01:43:16;;;;;;;;;;;21.50;28.60;;;;;;484776;246;1017;-39
2022/03/23 01:45:19;;;;;;;;;;;21.40;28.50;;;;;;484334;246;1226;-39
2022/03/23 01:47:19;;;;;;;;;;;21.40;28.60;;;;;;484249;246;2125;-39
2022/03/23 01:49:20;;;;;;;;;;;21.40;28.50;;;;;;484565;246;1142;-39
2022/03/23 01:51:21;;;;;;;;;;;21.40;28.50;;;;;;484533;242;1190;-39
2022/03/23 01:53:23;;;;;;;;;;;21.40;28.60;;;;;;484330;246;1044;-39
2022/03/23 01:55:24;;;;;;;;;;;21.40;28.60;;;;;;484757;246;1042;-39
2022/03/23 01:57:25;;;;;;;;;;;21.40;28.60;;;;;;484367;246;1155;-39
2022/03/23 01:59:27;;;;;;;;;;;21.40;28.60;;;;;;484599;246;1181;-39
2022/03/23 02:01:28;;;;;;;;;;;21.40;28.50;;;;;;484671;246;1503;-39
2022/03/23 02:03:29;;;;;;;;;;;21.50;28.60;;;;;;484352;246;1021;-39
2022/03/23 02:05:31;;;;;;;;;;;21.50;28.60;;;;;;484462;246;1143;-39
2022/03/23 02:07:32;;;;;;;;;;;21.50;28.60;;;;;;484239;246;2259;-39
2022/03/23 02:09:33;;;;;;;;;;;21.50;28.60;;;;;;484709;246;1107;-39
2022/03/23 02:11:35;;;;;;;;;;;21.50;28.60;;;;;;484349;246;1346;-39
2022/03/23 02:13:36;;;;;;;;;;;21.50;28.60;;;;;;484341;246;1085;-39
2022/03/23 02:15:37;;;;;;;;;;;21.50;28.60;;;;;;484306;246;1218;-39
2022/03/23 02:17:39;;;;;;;;;;;21.40;28.60;;;;;;484448;246;1193;-39
2022/03/23 02:19:40;;;;;;;;;;;21.50;28.60;;;;;;484770;246;1147;-39
2022/03/23 02:21:41;;;;;;;;;;;21.40;28.60;;;;;;484729;246;1071;-39
2022/03/23 02:23:43;;;;;;;;;;;21.50;28.60;;;;;;484291;246;1028;-39
2022/03/23 02:25:44;;;;;;;;;;;21.50;28.60;;;;;;484724;246;1045;-39
2022/03/23 02:27:45;;;;;;;;;;;21.40;28.60;;;;;;484611;246;2128;-39
2022/03/23 02:29:47;;;;;;;;;;;21.40;28.60;;;;;;484583;246;1167;-39
2022/03/23 02:31:48;;;;;;;;;;;21.40;28.60;;;;;;484309;246;1143;-39
2022/03/23 02:33:49;;;;;;;;;;;21.40;28.60;;;;;;484700;246;1045;-39
2022/03/23 02:35:50;;;;;;;;;;;21.40;28.60;;;;;;484532;246;1186;-39
2022/03/23 02:37:52;;;;;;;;;;;21.40;28.60;;;;;;484308;246;1404;-39
2022/03/23 02:39:53;;;;;;;;;;;21.40;28.60;;;;;;484454;246;1073;-39
2022/03/23 02:41:56;;;;;;;;;;;21.40;28.60;;;;;;484684;246;1206;-39
2022/03/23 02:43:56;;;;;;;;;;;21.40;28.60;;;;;;484673;246;1694;-39
2022/03/23 02:45:57;;;;;;;;;;;21.40;28.60;;;;;;484297;246;1243;-39
2022/03/23 02:47:59;;;;;;;;;;;21.40;28.60;;;;;;484734;246;2120;-39
2022/03/23 02:50:01;;;;;;;;;;;21.50;28.60;;;;;;484536;246;1060;-39
2022/03/23 02:52:01;;;;;;;;;;;21.40;28.60;;;;;;484251;246;2158;-39
2022/03/23 03:03:19;;;;;;;;;;;21.40;28.60;;;;;;484282;246;1064;-39
2022/03/23 03:05:20;;;;;;;;;;;21.40;28.60;;;;;;484254;246;1203;-39
2022/03/23 03:07:22;;;;;;;;;;;21.40;28.60;;;;;;484421;246;2131;-39
2022/03/23 03:09:23;;;;;;;;;;;21.40;28.70;;;;;;484256;246;1071;-39
2022/03/23 03:11:25;;;;;;;;;;;21.40;28.60;;;;;;484175;246;1549;-39
2022/03/23 03:13:29;;;;;;;;;;;21.40;28.60;;;;;;484213;246;2341;-39
2022/03/23 03:15:27;;;;;;;;;;;21.40;28.60;;;;;;484326;246;2344;-39
2022/03/23 03:17:29;;;;;;;;;;;21.40;28.60;;;;;;484215;246;1631;-39
2022/03/23 03:19:30;;;;;;;;;;;21.40;28.70;;;;;;484395;246;1129;-39
2022/03/23 03:21:32;;;;;;;;;;;21.40;28.60;;;;;;484565;246;1447;-39
2022/03/23 03:23:33;;;;;;;;;;;21.40;28.70;;;;;;484234;246;2051;-39
2022/03/23 03:25:34;;;;;;;;;;;21.40;28.70;;;;;;484724;246;1095;-39
2022/03/23 03:27:35;;;;;;;;;;;21.40;28.60;;;;;;484204;246;2133;-39
2022/03/23 03:29:37;;;;;;;;;;;21.40;28.70;;;;;;484254;246;1075;-40
2022/03/23 03:31:38;;;;;;;;;;;21.40;28.70;;;;;;484234;246;1120;-39
2022/03/23 03:33:39;;;;;;;;;;;21.40;28.60;;;;;;484284;246;1047;-39
2022/03/23 03:35:40;;;;;;;;;;;21.40;28.60;;;;;;484707;246;1067;-39
2022/03/23 03:37:42;;;;;;;;;;;21.40;28.70;;;;;;484284;246;1074;-39
2022/03/23 03:39:43;;;;;;;;;;;21.40;28.70;;;;;;484746;246;1061;-39
2022/03/23 03:41:45;;;;;;;;;;;21.40;28.70;;;;;;484663;246;1038;-39
2022/03/23 03:43:46;;;;;;;;;;;21.40;28.70;;;;;;484449;246;1016;-39
2022/03/23 03:45:47;;;;;;;;;;;21.40;28.60;;;;;;484301;246;1207;-39
2022/03/23 03:47:48;;;;;;;;;;;21.40;28.70;;;;;;484704;246;2207;-39
2022/03/23 03:49:50;;;;;;;;;;;21.40;28.60;;;;;;484722;246;1073;-39
2022/03/23 03:51:52;;;;;;;;;;;21.40;28.60;;;;;;484210;246;1062;-39
2022/03/23 03:53:52;;;;;;;;;;;21.40;28.60;;;;;;484596;246;2080;-39
2022/03/23 03:55:54;;;;;;;;;;;21.40;28.60;;;;;;484632;246;1319;-39
2022/03/23 03:57:55;;;;;;;;;;;21.40;28.60;;;;;;484332;246;1206;-39
2022/03/23 03:59:56;;;;;;;;;;;21.40;28.70;;;;;;484729;246;1029;-39
2022/03/23 04:01:58;;;;;;;;;;;21.40;28.60;;;;;;484235;246;1324;-39
2022/03/23 04:03:59;;;;;;;;;;;21.40;28.70;;;;;;484275;246;1035;-39
2022/03/23 04:06:00;;;;;;;;;;;21.40;28.70;;;;;;484229;246;1525;-39
2022/03/23 04:08:02;;;;;;;;;;;21.40;28.70;;;;;;484300;246;2192;-39
2022/03/23 04:10:03;;;;;;;;;;;21.40;28.70;;;;;;484690;246;1121;-39
2022/03/23 04:12:04;;;;;;;;;;;21.40;28.70;;;;;;484677;246;1367;-39
2022/03/23 04:14:05;;;;;;;;;;;21.40;28.60;;;;;;484693;246;1058;-39
2022/03/23 04:16:07;;;;;;;;;;;21.40;28.70;;;;;;484229;246;1330;-39
2022/03/23 04:18:08;;;;;;;;;;;21.40;28.70;;;;;;484303;246;1163;-39
2022/03/23 04:20:10;;;;;;;;;;;21.40;28.70;;;;;;484762;246;1143;-39
2022/03/23 04:22:12;;;;;;;;;;;21.40;28.70;;;;;;484597;246;1195;-39
2022/03/23 04:24:12;;;;;;;;;;;21.40;28.70;;;;;;484643;246;2440;-39
2022/03/23 04:26:13;;;;;;;;;;;21.40;28.70;;;;;;484608;246;1257;-39
2022/03/23 04:28:15;;;;;;;;;;;21.40;28.70;;;;;;484715;246;2183;-39
2022/03/23 04:30:16;;;;;;;;;;;21.40;28.70;;;;;;484239;246;1215;-39
2022/03/23 04:32:18;;;;;;;;;;;21.40;28.70;;;;;;484474;246;1068;-39
2022/03/23 04:34:19;;;;;;;;;;;21.40;28.70;;;;;;484275;246;1027;-39
2022/03/23 04:36:20;;;;;;;;;;;21.40;28.70;;;;;;484696;246;1083;-39
2022/03/23 04:38:24;;;;;;;;;;;21.40;28.70;;;;;;484310;246;1160;-39
2022/03/23 04:40:25;;;;;;;;;;;21.40;28.70;;;;;;484717;246;1243;-39
2022/03/23 04:42:26;;;;;;;;;;;21.40;28.70;;;;;;484568;246;1213;-39
2022/03/23 04:44:27;;;;;;;;;;;21.40;28.70;;;;;;484334;246;1103;-39
2022/03/23 04:46:29;;;;;;;;;;;21.40;28.70;;;;;;484163;246;1199;-39
2022/03/23 04:48:30;;;;;;;;;;;21.40;28.70;;;;;;484347;246;2128;-39
2022/03/23 04:50:31;;;;;;;;;;;21.40;28.70;;;;;;484276;246;1081;-39
2022/03/23 04:52:33;;;;;;;;;;;21.40;28.70;;;;;;484266;246;1244;-39
2022/03/23 04:54:34;;;;;;;;;;;21.40;28.70;;;;;;484737;246;1021;-39
2022/03/23 04:56:35;;;;;;;;;;;21.50;28.70;;;;;;484242;246;1247;-39
2022/03/23 04:58:37;;;;;;;;;;;21.50;28.70;;;;;;484297;246;1108;-39
2022/03/23 05:00:38;;;;;;;;;;;21.50;28.70;;;;;;484634;246;1331;-39
2022/03/23 05:02:39;;;;;;;;;;;21.40;28.70;;;;;;484238;246;1589;-39
2022/03/23 05:04:41;;;;;;;;;;;21.40;28.70;;;;;;484677;246;1108;-39
2022/03/23 05:06:42;;;;;;;;;;;21.40;28.70;;;;;;484444;246;1436;-39
2022/03/23 05:08:43;;;;;;;;;;;21.40;28.70;;;;;;484710;246;2121;-39
2022/03/23 05:10:45;;;;;;;;;;;21.40;28.60;;;;;;484556;246;1339;-39
2022/03/23 05:12:46;;;;;;;;;;;21.50;28.70;;;;;;484498;246;1171;-39
2022/03/23 05:14:47;;;;;;;;;;;21.40;28.70;;;;;;484622;246;1064;-39
2022/03/23 05:16:48;;;;;;;;;;;21.40;28.70;;;;;;484420;242;1316;-39
2022/03/23 05:18:50;;;;;;;;;;;21.40;28.60;;;;;;484243;246;1087;-39
2022/03/23 05:20:51;;;;;;;;;;;21.50;28.70;;;;;;484228;246;1202;-39
2022/03/23 05:22:53;;;;;;;;;;;21.50;28.70;;;;;;484548;246;1180;-39
2022/03/23 05:24:54;;;;;;;;;;;21.50;28.70;;;;;;484373;246;2000;-39
2022/03/23 05:26:55;;;;;;;;;;;21.50;28.70;;;;;;484191;246;1177;-39
2022/03/23 05:28:56;;;;;;;;;;;21.50;28.70;;;;;;484219;246;2125;-39
2022/03/23 05:30:58;;;;;;;;;;;21.50;28.70;;;;;;484505;246;1071;-39
2022/03/23 05:32:59;;;;;;;;;;;21.50;28.70;;;;;;484117;246;1351;-39
2022/03/23 05:35:02;;;;;;;;;;;21.40;28.60;;;;;;484569;246;1057;-39
2022/03/23 05:37:03;;;;;;;;;;;21.50;28.70;;;;;;484466;246;1186;-39
2022/03/23 05:39:04;;;;;;;;;;;21.50;28.70;;;;;;484457;246;1189;-39
2022/03/23 05:41:06;;;;;;;;;;;21.50;28.70;;;;;;484183;246;1141;-39
2022/03/23 05:43:07;;;;;;;;;;;21.50;28.70;;;;;;484630;246;1047;-39
2022/03/23 05:45:08;;;;;;;;;;;21.40;28.70;;;;;;484193;246;1053;-39
2022/03/23 05:47:10;;;;;;;;;;;21.40;28.70;;;;;;484323;246;1225;-39
2022/03/23 05:49:11;;;;;;;;;;;21.40;28.70;;;;;;484223;246;2136;-39
2022/03/23 05:51:12;;;;;;;;;;;21.40;28.70;;;;;;484274;246;1300;-39
2022/03/23 05:53:13;;;;;;;;;;;21.40;28.70;;;;;;484138;246;1131;-39
2022/03/23 05:55:15;;;;;;;;;;;21.40;28.70;;;;;;484042;246;1105;-39
2022/03/23 05:57:16;;;;;;;;;;;21.40;28.80;;;;;;483988;246;1137;-39
2022/03/23 05:59:17;;;;;;;;;;;21.40;28.70;;;;;;484080;246;1073;-39
2022/03/23 06:01:19;;;;;;;;;;;21.40;28.70;;;;;;484026;246;1077;-39
2022/03/23 06:03:20;;;;;;;;;;;21.40;28.70;;;;;;484103;246;1186;-39
2022/03/23 06:05:21;;;;;;;;;;;21.40;28.70;;;;;;484508;246;1082;-39
2022/03/23 06:07:23;;;;;;;;;;;21.40;28.70;;;;;;484046;246;1050;-39
2022/03/23 06:09:24;;;;;;;;;;;21.40;28.70;;;;;;484223;246;2124;-39
2022/03/23 06:11:25;;;;;;;;;;;21.40;28.70;;;;;;484075;246;1049;-39
2022/03/23 06:13:27;;;;;;;;;;;21.40;28.80;;;;;;484311;246;1068;-39
2022/03/23 06:15:28;;;;;;;;;;;21.40;28.80;;;;;;484252;246;1067;-39
2022/03/23 06:17:29;;;;;;;;;;;21.40;28.70;;;;;;484237;246;1088;-39
2022/03/23 06:19:31;;;;;;;;;;;21.40;28.80;;;;;;484464;246;1082;-39
2022/03/23 06:21:32;;;;;;;;;;;21.40;28.80;;;;;;484185;246;1191;-39
2022/03/23 06:23:33;;;;;;;;;;;21.40;28.80;;;;;;483886;246;1105;-39
2022/03/23 06:25:35;;;;;;;;;;;21.40;28.80;;;;;;483896;246;1140;-39
2022/03/23 06:27:36;;;;;;;;;;;21.40;28.70;;;;;;484105;246;1173;-39
2022/03/23 06:29:38;;;;;;;;;;;21.40;28.70;;;;;;483908;246;2180;-39
2022/03/23 06:31:39;;;;;;;;;;;21.40;28.80;;;;;;483850;246;1429;-39
2022/03/23 06:33:40;;;;;;;;;;;21.40;28.80;;;;;;484028;246;1990;-39
2022/03/23 06:35:41;;;;;;;;;;;21.40;28.70;;;;;;484439;246;1181;-39
2022/03/23 06:37:43;;;;;;;;;;;21.40;28.70;;;;;;484136;246;1604;-39
2022/03/23 06:39:44;;;;;;;;;;;21.40;28.70;;;;;;483832;246;1074;-39
2022/03/23 06:41:45;;;;;;;;;;;21.40;28.70;;;;;;484129;246;1090;-39
2022/03/23 06:43:47;;;;;;;;;;;21.40;28.70;;;;;;484319;246;1069;-39
2022/03/23 06:45:48;;;;;;;;;;;21.40;28.70;;;;;;483887;246;1059;-39
2022/03/23 06:47:49;;;;;;;;;;;21.40;28.70;;;;;;483957;242;2165;-39
2022/03/23 06:49:51;;;;;;;;;;;21.40;28.70;;;;;;484024;246;1060;-39
2022/03/23 06:51:52;;;;;;;;;;;21.40;28.70;;;;;;484263;246;1103;-39
2022/03/23 06:53:53;;;;;;;;;;;21.40;28.70;;;;;;484216;246;1143;-39
2022/03/23 06:55:55;;;;;;;;;;;21.40;28.70;;;;;;483996;246;1065;-39
2022/03/23 06:57:56;;;;;;;;;;;21.50;28.70;;;;;;483957;246;1080;-39
2022/03/23 06:59:57;;;;;;;;;;;21.40;28.70;;;;;;483996;246;1050;-39
2022/03/23 07:01:58;;;;;;;;;;;21.40;28.70;;;;;;483790;246;1158;-39
2022/03/23 07:04:00;;;;;;;;;;;21.40;28.80;;;;;;483832;246;1545;-39
2022/03/23 07:06:01;;;;;;;;;;;21.40;28.70;;;;;;484126;246;1185;-39
2022/03/23 07:10:22;;;;;;;;;;;21.50;28.70;;;;;;483933;246;1084;-39
2022/03/23 07:12:23;;;;;;;;;;;21.50;28.70;;;;;;483764;246;1475;-39
2022/03/23 07:14:25;;;;;;;;;;;21.50;28.70;;;;;;483986;246;1135;-39
2022/03/23 07:16:28;;;;;;;;;;;21.50;28.80;;;;;;483693;246;1142;-39
2022/03/23 07:18:27;;;;;;;;;;;21.40;28.70;;;;;;483827;246;2207;-39
2022/03/23 07:20:29;;;;;;;;;;;21.40;28.70;;;;;;483720;246;1134;-39
2022/03/23 07:22:30;;;;;;;;;;;21.50;28.70;;;;;;483703;246;1072;-39
2022/03/23 07:24:32;;;;;;;;;;;21.40;28.70;;;;;;483733;246;1112;-39
2022/03/23 07:26:33;;;;;;;;;;;21.40;28.70;;;;;;483804;246;1688;-39
2022/03/23 07:28:34;;;;;;;;;;;21.40;28.70;;;;;;483982;246;2195;-39
2022/03/23 07:30:36;;;;;;;;;;;21.40;28.70;;;;;;483879;246;1071;-39
2022/03/23 07:32:38;;;;;;;;;;;21.40;28.70;;;;;;483624;246;1286;-39
2022/03/23 07:34:39;;;;;;;;;;;21.40;28.70;;;;;;483621;246;1086;-39
2022/03/23 07:36:42;;;;;;;;;;;21.40;28.60;;;;;;483569;246;1066;-39
2022/03/23 07:38:41;;;;;;;;;;;21.50;28.70;;;;;;483524;246;2122;-39
2022/03/23 07:40:43;;;;;;;;;;;21.40;28.70;;;;;;483535;246;1134;-39
2022/03/23 07:42:44;;;;;;;;;;;21.40;28.70;;;;;;483705;246;1433;-39
2022/03/23 07:44:45;;;;;;;;;;;21.40;28.60;;;;;;483503;246;1132;-39
2022/03/23 07:46:47;;;;;;;;;;;21.40;28.60;;;;;;483576;246;1425;-39
2022/03/23 07:48:48;;;;;;;;;;;21.40;28.60;;;;;;483772;246;2192;-39
2022/03/23 07:50:49;;;;;;;;;;;21.50;28.60;;;;;;483745;246;1116;-39
2022/03/23 07:52:51;;;;;;;;;;;21.50;28.60;;;;;;483506;246;1081;-39
2022/03/23 07:54:52;;;;;;;;;;;21.50;28.60;;;;;;483452;246;1075;-39
2022/03/23 07:56:54;;;;;;;;;;;21.50;28.50;;;;;;483519;246;1510;-39
2022/03/23 07:58:55;;;;;;;;;;;21.60;28.50;;;;;;483155;246;1086;-39
2022/03/23 08:00:56;;;;;;;;;;;21.60;28.50;;;;;;483014;246;1590;-39
2022/03/23 08:02:58;;;;;;;;;;;21.60;28.50;;;;;;483225;246;1308;-39
2022/03/23 08:04:59;;;;;;;;;;;21.60;28.50;;;;;;483345;246;1088;-39
2022/03/23 08:07:02;;;;;;;;;;;21.50;28.50;;;;;;483380;246;1358;-39
2022/03/23 08:09:02;;;;;;;;;;;21.60;28.50;;;;;;483211;246;2203;-39
2022/03/23 08:11:04;;;;;;;;;;;21.60;28.50;;;;;;483368;246;1334;-39
2022/03/23 08:13:05;;;;;;;;;;;21.60;28.50;;;;;;483559;246;1097;-39
2022/03/23 08:15:07;;;;;;;;;;;21.60;28.50;;;;;;483430;246;1266;-39
2022/03/23 08:17:08;;;;;;;;;;;21.60;28.40;;;;;;483441;246;1227;-39
2022/03/23 08:19:09;;;;;;;;;;;21.60;28.40;;;;;;483319;246;1136;-39
2022/03/23 08:21:10;;;;;;;;;;;21.60;28.40;;;;;;483225;246;1130;-39
2022/03/23 08:23:15;;;;;;;;;;;21.60;28.40;;;;;;483501;246;1102;-39
2022/03/23 08:25:14;;;;;;;;;;;21.60;28.40;;;;;;482993;246;2053;-39
2022/03/23 08:27:15;;;;;;;;;;;21.60;28.40;;;;;;483371;246;1112;-39
2022/03/23 08:29:16;;;;;;;;;;;21.70;28.40;;;;;;483537;246;2411;-39
2022/03/23 08:31:17;;;;;;;;;;;21.60;28.30;;;;;;483306;246;1347;-39
2022/03/23 08:33:19;;;;;;;;;;;21.60;28.40;;;;;;483309;246;1229;-39
2022/03/23 08:35:21;;;;;;;;;;;21.60;28.30;;;;;;483383;246;1087;-39
2022/03/23 08:37:22;;;;;;;;;;;21.70;28.30;;;;;;483386;246;1221;-40
2022/03/23 08:39:23;;;;;;;;;;;21.70;28.30;;;;;;483426;246;1187;-40
2022/03/23 08:41:25;;;;;;;;;;;21.70;28.30;;;;;;483420;246;1410;-39
2022/03/23 08:43:26;;;;;;;;;;;21.70;28.40;;;;;;483481;246;1072;-39
2022/03/23 08:45:27;;;;;;;;;;;21.60;28.30;;;;;;483407;246;1207;-40
2022/03/23 08:47:29;;;;;;;;;;;21.70;28.30;;;;;;483413;246;1347;-40
2022/03/23 08:49:30;;;;;;;;;;;21.70;28.30;;;;;;483489;246;2180;-39
2022/03/23 08:51:31;;;;;;;;;;;21.70;28.30;;;;;;483429;246;1312;-39
2022/03/23 08:53:32;;;;;;;;;;;21.70;28.40;;;;;;483620;246;1159;-39
2022/03/23 08:55:34;;;;;;;;;;;21.70;28.30;;;;;;483462;246;1159;-39
2022/03/23 08:57:36;;;;;;;;;;;21.70;28.30;;;;;;483453;246;1340;-39
2022/03/23 08:59:37;;;;;;;;;;;21.70;28.40;;;;;;483472;246;1109;-39
2022/03/23 09:01:38;;;;;;;;;;;21.70;28.30;;;;;;483299;246;1217;-39
2022/03/23 09:03:39;;;;;;;;;;;21.70;28.40;;;;;;483398;246;1208;-39
2022/03/23 09:05:41;;;;;;;;;;;21.70;28.30;;;;;;483407;246;1121;-39
2022/03/23 09:07:42;;;;;;;;;;;21.70;28.40;;;;;;483353;246;1291;-39
2022/03/23 09:09:43;;;;;;;;;;;21.70;28.30;;;;;;483348;246;2191;-39
2022/03/23 09:11:45;;;;;;;;;;;21.70;28.30;;;;;;483472;246;1252;-39
2022/03/23 09:13:47;;;;;;;;;;;21.70;28.30;;;;;;483222;246;1160;-39
2022/03/23 09:15:48;;;;;;;;;;;21.70;28.30;;;;;;483142;246;2140;-39
2022/03/23 09:17:49;;;;;;;;;;;21.70;28.30;;;;;;483430;246;1427;-39
2022/03/23 09:19:50;;;;;;;;;;;21.70;28.30;;;;;;483496;246;1232;-39
2022/03/23 09:21:53;;;;;;;;;;;21.70;28.30;;;;;;483469;246;1190;-39
2022/03/23 09:23:53;;;;;;;;;;;21.70;28.30;;;;;;483164;246;2179;-39
2022/03/23 09:25:54;;;;;;;;;;;21.70;28.30;;;;;;483132;246;1337;-39
2022/03/23 09:27:56;;;;;;;;;;;21.70;28.30;;;;;;483257;246;1080;-39
2022/03/23 09:29:57;;;;;;;;;;;21.60;28.30;;;;;;483326;246;2199;-39
2022/03/23 09:31:58;;;;;;;;;;;21.60;28.30;;;;;;483475;246;1110;-39
2022/03/23 09:34:02;;;;;;;;;;;21.60;28.30;;;;;;483601;246;1091;-39
2022/03/23 09:36:01;;;;;;;;;;;21.70;28.30;;;;;;483388;245;1815;-39
2022/03/23 09:38:04;;;;;;;;;;;21.70;28.30;;;;;;483613;246;1148;-39
2022/03/23 09:40:05;;;;;;;;;;;21.60;28.20;;;;;;483526;246;1095;-39
2022/03/23 09:42:06;;;;;;;;;;;21.70;28.30;;;;;;483482;246;1253;-39
2022/03/23 09:44:08;;;;;;;;;;;21.60;28.20;;;;;;483299;246;1115;-39
2022/03/23 09:46:09;;;;;;;;;;;21.60;28.20;;;;;;483157;246;1475;-39
2022/03/23 09:48:11;;;;;;;;;;;21.70;28.20;;;;;;483534;246;1103;-39
2022/03/23 09:50:12;;;;;;;;;;;21.70;28.20;;;;;;483386;246;2113;-39
2022/03/23 09:52:14;;;;;;;;;;;21.60;28.20;;;;;;483373;246;1239;-39
2022/03/23 09:54:14;;;;;;;;;;;21.60;28.20;;;;;;483508;246;2267;-39
2022/03/23 09:56:16;;;;;;;;;;;21.70;28.20;;;;;;483323;246;1150;-39
2022/03/23 09:58:17;;;;;;;;;;;21.60;28.20;;;;;;483363;246;1124;-39
2022/03/23 10:00:18;;;;;;;;;;;21.60;28.20;;;;;;483219;246;1115;-39
2022/03/23 10:02:20;;;;;;;;;;;21.60;28.20;;;;;;483167;246;1755;-39
2022/03/23 10:04:23;;;;;;;;;;;21.60;28.20;;;;;;483415;246;1147;-39
2022/03/23 10:06:22;;;;;;;;;;;21.60;28.20;;;;;;483348;246;2094;-39
2022/03/23 10:08:23;;;;;;;;;;;21.70;28.20;;;;;;483459;246;1216;-39
2022/03/23 10:10:25;;;;;;;;;;;21.60;28.10;;;;;;483471;246;2192;-39
2022/03/23 10:12:26;;;;;;;;;;;21.60;28.20;;;;;;483528;246;1157;-39
2022/03/23 10:14:27;;;;;;;;;;;21.60;28.20;;;;;;483468;246;1070;-39
2022/03/23 10:16:29;;;;;;;;;;;21.60;28.10;;;;;;483340;246;1207;-39
2022/03/23 10:18:30;;;;;;;;;;;21.60;28.20;;;;;;483487;246;1069;-40
2022/03/23 10:20:32;;;;;;;;;;;21.60;28.20;;;;;;483232;246;1087;-39
2022/03/23 10:22:33;;;;;;;;;;;21.50;28.20;;;;;;483387;246;1280;-39
2022/03/23 10:24:34;;;;;;;;;;;21.60;28.10;;;;;;483489;246;1130;-39
2022/03/23 10:26:36;;;;;;;;;;;21.50;28.20;;;;;;483346;246;1153;-39
2022/03/23 10:28:38;;;;;;;;;;;21.60;28.20;;;;;;483460;246;1161;-39
2022/03/23 10:30:39;;;;;;;;;;;21.60;28.20;;;;;;483486;246;2183;-39
2022/03/23 10:32:42;;;;;;;;;;;21.60;28.10;;;;;;483199;246;1263;-39
2022/03/23 10:34:43;;;;;;;;;;;21.60;28.20;;;;;;483262;246;1092;-39
2022/03/23 10:36:44;;;;;;;;;;;21.60;28.10;;;;;;483006;246;1314;-39
2022/03/23 10:38:46;;;;;;;;;;;21.60;28.10;;;;;;483371;246;1276;-39
2022/03/23 10:40:47;;;;;;;;;;;21.60;28.10;;;;;;483301;246;1101;-39
2022/03/23 10:42:48;;;;;;;;;;;21.60;28.10;;;;;;483274;246;1114;-39
2022/03/23 10:44:50;;;;;;;;;;;21.60;28.10;;;;;;483436;246;1100;-39
2022/03/23 10:46:51;;;;;;;;;;;21.60;28.10;;;;;;483363;246;1267;-39
2022/03/23 10:48:54;;;;;;;;;;;21.60;28.20;;;;;;483225;246;1062;-39
2022/03/23 10:50:54;;;;;;;;;;;21.60;28.10;;;;;;483140;246;2188;-39
2022/03/23 10:52:55;;;;;;;;;;;21.60;28.20;;;;;;483244;246;1329;-39
2022/03/23 10:54:57;;;;;;;;;;;21.60;28.20;;;;;;483441;246;1119;-39
2022/03/23 10:56:58;;;;;;;;;;;21.60;28.10;;;;;;483456;246;1132;-39
2022/03/23 10:58:59;;;;;;;;;;;21.60;28.10;;;;;;483526;246;1117;-39
2022/03/23 11:01:01;;;;;;;;;;;21.60;28.10;;;;;;483521;246;1055;-39
2022/03/23 11:03:02;;;;;;;;;;;21.60;28.10;;;;;;483533;246;1124;-39
2022/03/23 11:05:03;;;;;;;;;;;21.60;28.10;;;;;;483573;246;1058;-39
2022/03/23 11:07:05;;;;;;;;;;;21.60;28.10;;;;;;483463;246;1255;-39
2022/03/23 11:15:46;;;;;;;;;;;21.60;28.10;;;;;;483448;246;1075;-39
2022/03/23 11:15:50;;;;;;;;;;;21.60;28.10;;;;;;483362;246;1466;-39
2022/03/23 11:17:50;;;;;;;;;;;21.60;28.00;;;;;;483627;246;2280;-39
2022/03/23 11:19:51;;;;;;;;;;;21.60;28.10;;;;;;483367;246;1092;-40
2022/03/23 11:21:52;;;;;;;;;;;21.60;28.10;;;;;;483407;246;1282;-39
2022/03/23 11:23:54;;;;;;;;;;;21.60;28.10;;;;;;483290;246;1072;-39
2022/03/23 11:25:55;;;;;;;;;;;21.60;28.00;;;;;;483496;246;2080;-39
2022/03/23 11:27:56;;;;;;;;;;;21.60;28.00;;;;;;483435;246;1076;-39
2022/03/23 11:29:58;;;;;;;;;;;21.60;28.10;;;;;;483364;246;2177;-39
2022/03/23 11:32:00;;;;;;;;;;;21.50;28.00;;;;;;483561;246;1136;-39
2022/03/23 11:34:01;;;;;;;;;;;21.60;28.10;;;;;;483545;246;2185;-39
2022/03/23 11:36:02;;;;;;;;;;;21.60;28.00;;;;;;483564;246;1238;-39
2022/03/23 11:38:03;;;;;;;;;;;21.60;28.10;;;;;;483444;246;1099;-39
2022/03/23 11:40:04;;;;;;;;;;;21.50;28.00;;;;;;483760;246;1086;-39
2022/03/23 11:42:06;;;;;;;;;;;21.50;28.00;;;;;;483529;246;1140;-39
2022/03/23 11:44:07;;;;;;;;;;;21.50;28.00;;;;;;483641;246;1177;-39
2022/03/23 11:46:10;;;;;;;;;;;21.50;28.10;;;;;;483298;246;1125;-39
2022/03/23 11:48:10;;;;;;;;;;;21.50;28.10;;;;;;483629;246;1860;-39
2022/03/23 11:50:12;;;;;;;;;;;21.50;28.00;;;;;;483518;246;2219;-39
2022/03/23 11:52:13;;;;;;;;;;;21.50;28.00;;;;;;483496;246;1514;-40
2022/03/23 11:54:14;;;;;;;;;;;21.50;28.00;;;;;;483383;246;1094;-39
2022/03/23 11:56:16;;;;;;;;;;;21.60;28.00;;;;;;483341;246;1250;-39
2022/03/23 11:58:17;;;;;;;;;;;21.60;28.00;;;;;;483392;246;1130;-39
2022/03/23 12:00:18;;;;;;;;;;;21.50;28.00;;;;;;483496;246;1235;-39
2022/03/23 12:02:21;;;;;;;;;;;21.60;28.00;;;;;;483279;246;1263;-39
2022/03/23 12:04:23;;;;;;;;;;;21.50;27.90;;;;;;483337;246;1095;-39
2022/03/23 12:06:24;;;;;;;;;;;21.50;28.00;;;;;;483322;246;1338;-39
2022/03/23 12:08:25;;;;;;;;;;;21.50;28.00;;;;;;483289;246;1063;-39
2022/03/23 12:10:28;;;;;;;;;;;21.60;28.00;;;;;;483237;246;2195;-39
2022/03/23 12:12:28;;;;;;;;;;;21.60;27.90;;;;;;483235;246;2236;-39